Portada
METAR-TAF:

METAR-TAF

Aeroports :

Nakhon Ratchasima, Tailàndia

latitud: 14-56-58N, longitud: 102-18-45E, altitud: 233 m

Observació

L'informe es va fer fa 12 hores i 15 minuts, a les 11:00 UTC
Vent 3 kt del Sud/Sud-Oest, variant entre Sud i Sud-Oest
Temperatura 31°C
Humitat 71%
Pressió 1004 hPa
Visibilitat 10 km o més
Escasses núvols a una alçada de 3000 ft

METAR: VTUQ 091100Z 20003KT 170V230 9999 FEW030 31/25 Q1004 NOSIG

Hora: 06:15 (23:15 UTC)

Pronòstic

L'informe es va fer fa 6 hores i 15 minuts, a les 17:00 UTC
Pronòstic vàlid del 09 a les 18 UTC al 10 a les 18 UTC
Vent 5 kt del Sud/Sud-Oest
Visibilitat 10 km o més
Núvols disperses a una alçada de 3000 ft
Temporalment
l' 10 a les 12 UTC al 10 a les 15 UTC
Vent 15 kt amb direcció variable
Visibilitat: 4500 m
Escasses núvols a una alçada de 1800 ft, Cumulonimbus.
Cel ennuvolat a una alçada de 2000 ft
tempesta, pluja

TAF: VTUQ 091700Z 0918/1018 20005KT 9999 SCT030 TEMPO 1012/1015 VRB15KT 4500 TSRA FEW018CB BKN020

Observacions i pronòstics meteorològics de més de 4000 aeroports (METAR i TAF).

Les estacions disponibles són els punts grocs i vermells al mapa.

Posi el ratolí al punt desitjat per veure el nom de l'estació.

Feu clic per veure les observacions i els pronòstics meteorològics.

Per canviar el mapa: feu clic els botons verds amb una creu de color negre per apropar; al botó verd amb un guió per allunyar la imatge; o en les fletxes verdes per a mapes adjacents.


METAR-TAF: